sensor_id;sensor_type;location;lat;lon;timestamp;P1;durP1;ratioP1;P2;durP2;ratioP2
72611;SDS011;60655;52.182;4.474;2023-03-21T00:01:01;20.05;;;8.35;;
72611;SDS011;60655;52.182;4.474;2023-03-21T00:03:05;19.90;;;9.23;;
72611;SDS011;60655;52.182;4.474;2023-03-21T00:05:06;23.98;;;10.90;;
72611;SDS011;60655;52.182;4.474;2023-03-21T00:07:07;24.75;;;10.27;;
72611;SDS011;60655;52.182;4.474;2023-03-21T00:09:08;27.58;;;10.23;;
72611;SDS011;60655;52.182;4.474;2023-03-21T00:11:10;24.63;;;10.73;;
72611;SDS011;60655;52.182;4.474;2023-03-21T00:13:12;24.98;;;10.70;;
72611;SDS011;60655;52.182;4.474;2023-03-21T00:15:15;23.20;;;9.70;;
72611;SDS011;60655;52.182;4.474;2023-03-21T00:17:17;22.35;;;10.13;;
72611;SDS011;60655;52.182;4.474;2023-03-21T00:19:21;20.15;;;9.75;;
72611;SDS011;60655;52.182;4.474;2023-03-21T00:21:24;19.92;;;10.30;;
72611;SDS011;60655;52.182;4.474;2023-03-21T00:23:28;23.83;;;10.50;;
72611;SDS011;60655;52.182;4.474;2023-03-21T00:25:31;21.02;;;9.90;;
72611;SDS011;60655;52.182;4.474;2023-03-21T00:27:33;26.67;;;10.52;;
72611;SDS011;60655;52.182;4.474;2023-03-21T00:29:34;24.10;;;10.82;;
72611;SDS011;60655;52.182;4.474;2023-03-21T00:31:35;25.90;;;10.88;;
72611;SDS011;60655;52.182;4.474;2023-03-21T00:33:36;23.17;;;10.30;;
72611;SDS011;60655;52.182;4.474;2023-03-21T00:35:39;22.00;;;10.70;;
72611;SDS011;60655;52.182;4.474;2023-03-21T00:37:47;23.80;;;11.23;;
72611;SDS011;60655;52.182;4.474;2023-03-21T00:39:48;22.10;;;9.23;;
72611;SDS011;60655;52.182;4.474;2023-03-21T00:41:49;22.63;;;10.00;;
72611;SDS011;60655;52.182;4.474;2023-03-21T00:43:50;23.15;;;9.63;;
72611;SDS011;60655;52.182;4.474;2023-03-21T00:45:51;29.98;;;11.35;;
72611;SDS011;60655;52.182;4.474;2023-03-21T00:47:52;24.55;;;10.57;;
72611;SDS011;60655;52.182;4.474;2023-03-21T00:49:53;24.70;;;11.02;;
72611;SDS011;60655;52.182;4.474;2023-03-21T00:51:54;17.95;;;9.25;;
72611;SDS011;60655;52.182;4.474;2023-03-21T00:53:56;24.70;;;9.93;;
72611;SDS011;60655;52.182;4.474;2023-03-21T00:55:58;20.83;;;10.50;;
72611;SDS011;60655;52.182;4.474;2023-03-21T00:57:59;21.80;;;10.30;;
72611;SDS011;60655;52.182;4.474;2023-03-21T01:00:00;24.73;;;11.27;;
72611;SDS011;60655;52.182;4.474;2023-03-21T01:02:01;22.63;;;9.32;;
72611;SDS011;60655;52.182;4.474;2023-03-21T01:04:06;18.42;;;10.05;;
72611;SDS011;60655;52.182;4.474;2023-03-21T01:06:13;23.10;;;10.32;;
72611;SDS011;60655;52.182;4.474;2023-03-21T01:08:15;21.70;;;9.95;;
72611;SDS011;60655;52.182;4.474;2023-03-21T01:10:17;23.85;;;9.05;;
72611;SDS011;60655;52.182;4.474;2023-03-21T01:12:18;20.33;;;9.98;;
72611;SDS011;60655;52.182;4.474;2023-03-21T01:14:20;20.80;;;10.18;;
72611;SDS011;60655;52.182;4.474;2023-03-21T01:16:23;22.17;;;9.70;;
72611;SDS011;60655;52.182;4.474;2023-03-21T01:18:26;21.10;;;10.05;;
72611;SDS011;60655;52.182;4.474;2023-03-21T01:20:28;27.10;;;12.25;;
72611;SDS011;60655;52.182;4.474;2023-03-21T01:22:29;22.17;;;10.40;;
72611;SDS011;60655;52.182;4.474;2023-03-21T01:24:30;23.77;;;9.15;;
72611;SDS011;60655;52.182;4.474;2023-03-21T01:26:32;27.45;;;10.80;;
72611;SDS011;60655;52.182;4.474;2023-03-21T01:28:33;24.48;;;10.55;;
72611;SDS011;60655;52.182;4.474;2023-03-21T01:30:35;27.75;;;10.48;;
72611;SDS011;60655;52.182;4.474;2023-03-21T01:32:36;23.25;;;9.73;;
72611;SDS011;60655;52.182;4.474;2023-03-21T01:34:37;21.35;;;8.98;;
72611;SDS011;60655;52.182;4.474;2023-03-21T01:36:38;20.23;;;8.70;;
72611;SDS011;60655;52.182;4.474;2023-03-21T01:38:40;22.02;;;10.05;;
72611;SDS011;60655;52.182;4.474;2023-03-21T01:40:42;19.70;;;8.40;;
72611;SDS011;60655;52.182;4.474;2023-03-21T01:42:45;18.05;;;9.23;;
72611;SDS011;60655;52.182;4.474;2023-03-21T01:45:06;18.65;;;8.40;;
72611;SDS011;60655;52.182;4.474;2023-03-21T01:47:28;18.42;;;7.57;;
72611;SDS011;60655;52.182;4.474;2023-03-21T01:49:31;17.23;;;6.95;;
72611;SDS011;60655;52.182;4.474;2023-03-21T01:51:39;17.90;;;7.93;;
72611;SDS011;60655;52.182;4.474;2023-03-21T01:53:43;20.63;;;7.57;;
72611;SDS011;60655;52.182;4.474;2023-03-21T01:55:46;16.48;;;7.57;;
72611;SDS011;60655;52.182;4.474;2023-03-21T01:57:50;16.80;;;8.65;;
72611;SDS011;60655;52.182;4.474;2023-03-21T01:59:54;20.50;;;7.68;;
72611;SDS011;60655;52.182;4.474;2023-03-21T02:01:55;20.83;;;8.38;;
72611;SDS011;60655;52.182;4.474;2023-03-21T02:04:00;18.40;;;7.80;;
72611;SDS011;60655;52.182;4.474;2023-03-21T02:06:12;19.25;;;8.82;;
72611;SDS011;60655;52.182;4.474;2023-03-21T02:08:17;18.42;;;7.53;;
72611;SDS011;60655;52.182;4.474;2023-03-21T02:10:20;16.67;;;8.68;;
72611;SDS011;60655;52.182;4.474;2023-03-21T02:12:22;19.63;;;9.02;;
72611;SDS011;60655;52.182;4.474;2023-03-21T02:14:24;17.30;;;8.30;;
72611;SDS011;60655;52.182;4.474;2023-03-21T02:16:31;21.33;;;9.20;;
72611;SDS011;60655;52.182;4.474;2023-03-21T02:19:17;20.90;;;8.82;;
72611;SDS011;60655;52.182;4.474;2023-03-21T02:37:22;21.17;;;9.18;;
72611;SDS011;60655;52.182;4.474;2023-03-21T02:44:05;22.45;;;9.80;;
72611;SDS011;60655;52.182;4.474;2023-03-21T02:46:09;19.83;;;9.18;;
72611;SDS011;60655;52.182;4.474;2023-03-21T02:48:15;20.17;;;9.35;;
72611;SDS011;60655;52.182;4.474;2023-03-21T02:50:25;21.23;;;9.82;;
72611;SDS011;60655;52.182;4.474;2023-03-21T02:52:33;17.38;;;9.18;;
72611;SDS011;60655;52.182;4.474;2023-03-21T02:54:36;22.83;;;10.07;;
72611;SDS011;60655;52.182;4.474;2023-03-21T02:56:38;26.13;;;10.30;;
72611;SDS011;60655;52.182;4.474;2023-03-21T02:58:41;18.65;;;9.27;;
72611;SDS011;60655;52.182;4.474;2023-03-21T03:00:42;20.17;;;9.65;;
72611;SDS011;60655;52.182;4.474;2023-03-21T03:02:45;22.20;;;9.82;;
72611;SDS011;60655;52.182;4.474;2023-03-21T03:04:49;24.77;;;11.35;;
72611;SDS011;60655;52.182;4.474;2023-03-21T03:06:59;21.27;;;10.63;;
72611;SDS011;60655;52.182;4.474;2023-03-21T03:18:34;20.02;;;11.35;;
72611;SDS011;60655;52.182;4.474;2023-03-21T03:23:04;23.38;;;10.13;;
72611;SDS011;60655;52.182;4.474;2023-03-21T03:25:17;26.45;;;11.13;;
72611;SDS011;60655;52.182;4.474;2023-03-21T03:27:24;23.73;;;11.27;;
72611;SDS011;60655;52.182;4.474;2023-03-21T03:29:29;23.88;;;10.13;;
72611;SDS011;60655;52.182;4.474;2023-03-21T03:31:37;20.98;;;9.55;;
72611;SDS011;60655;52.182;4.474;2023-03-21T03:33:42;20.00;;;9.70;;
72611;SDS011;60655;52.182;4.474;2023-03-21T03:35:48;23.52;;;10.35;;
72611;SDS011;60655;52.182;4.474;2023-03-21T03:37:51;22.42;;;10.77;;
72611;SDS011;60655;52.182;4.474;2023-03-21T03:40:00;20.63;;;10.23;;
72611;SDS011;60655;52.182;4.474;2023-03-21T03:42:13;18.95;;;9.40;;
72611;SDS011;60655;52.182;4.474;2023-03-21T03:44:17;19.05;;;9.15;;
72611;SDS011;60655;52.182;4.474;2023-03-21T03:46:41;25.15;;;10.50;;
72611;SDS011;60655;52.182;4.474;2023-03-21T03:48:51;17.63;;;8.40;;
72611;SDS011;60655;52.182;4.474;2023-03-21T03:53:26;29.25;;;11.23;;
72611;SDS011;60655;52.182;4.474;2023-03-21T03:55:30;22.02;;;10.05;;
72611;SDS011;60655;52.182;4.474;2023-03-21T03:57:33;18.58;;;8.35;;
72611;SDS011;60655;52.182;4.474;2023-03-21T03:59:35;22.85;;;8.52;;
72611;SDS011;60655;52.182;4.474;2023-03-21T04:01:38;19.90;;;8.50;;
72611;SDS011;60655;52.182;4.474;2023-03-21T04:03:41;22.25;;;8.52;;
72611;SDS011;60655;52.182;4.474;2023-03-21T04:05:44;27.98;;;8.85;;
72611;SDS011;60655;52.182;4.474;2023-03-21T04:07:46;23.30;;;7.78;;
72611;SDS011;60655;52.182;4.474;2023-03-21T04:09:50;19.73;;;8.32;;
72611;SDS011;60655;52.182;4.474;2023-03-21T04:11:51;20.88;;;8.23;;
72611;SDS011;60655;52.182;4.474;2023-03-21T04:13:52;25.27;;;8.07;;
72611;SDS011;60655;52.182;4.474;2023-03-21T04:15:53;15.88;;;7.80;;
72611;SDS011;60655;52.182;4.474;2023-03-21T04:17:55;23.92;;;8.27;;
72611;SDS011;60655;52.182;4.474;2023-03-21T04:19:56;22.00;;;8.10;;
72611;SDS011;60655;52.182;4.474;2023-03-21T04:21:57;20.70;;;7.70;;
72611;SDS011;60655;52.182;4.474;2023-03-21T04:23:58;15.85;;;7.50;;
72611;SDS011;60655;52.182;4.474;2023-03-21T04:25:59;20.10;;;8.55;;
72611;SDS011;60655;52.182;4.474;2023-03-21T04:28:00;22.13;;;7.32;;
72611;SDS011;60655;52.182;4.474;2023-03-21T04:30:02;19.13;;;7.75;;
72611;SDS011;60655;52.182;4.474;2023-03-21T04:32:05;18.88;;;7.63;;
72611;SDS011;60655;52.182;4.474;2023-03-21T04:34:15;23.63;;;8.40;;
72611;SDS011;60655;52.182;4.474;2023-03-21T04:36:16;16.17;;;7.03;;
72611;SDS011;60655;52.182;4.474;2023-03-21T04:38:38;17.27;;;7.57;;
72611;SDS011;60655;52.182;4.474;2023-03-21T04:40:39;18.38;;;6.95;;
72611;SDS011;60655;52.182;4.474;2023-03-21T04:42:40;22.88;;;7.10;;
72611;SDS011;60655;52.182;4.474;2023-03-21T04:44:41;17.48;;;8.20;;
72611;SDS011;60655;52.182;4.474;2023-03-21T04:46:42;21.33;;;9.30;;
72611;SDS011;60655;52.182;4.474;2023-03-21T04:48:44;18.63;;;8.38;;
72611;SDS011;60655;52.182;4.474;2023-03-21T04:50:45;24.52;;;8.90;;
72611;SDS011;60655;52.182;4.474;2023-03-21T04:52:46;17.73;;;7.32;;
72611;SDS011;60655;52.182;4.474;2023-03-21T04:54:48;20.80;;;7.38;;
72611;SDS011;60655;52.182;4.474;2023-03-21T04:56:49;16.77;;;7.80;;
72611;SDS011;60655;52.182;4.474;2023-03-21T04:58:51;23.60;;;9.23;;
72611;SDS011;60655;52.182;4.474;2023-03-21T05:00:52;19.40;;;8.77;;
72611;SDS011;60655;52.182;4.474;2023-03-21T05:02:53;21.38;;;8.90;;
72611;SDS011;60655;52.182;4.474;2023-03-21T05:04:54;22.40;;;8.00;;
72611;SDS011;60655;52.182;4.474;2023-03-21T05:06:57;19.17;;;7.07;;
72611;SDS011;60655;52.182;4.474;2023-03-21T05:08:59;19.92;;;7.43;;
72611;SDS011;60655;52.182;4.474;2023-03-21T05:11:01;16.10;;;8.10;;
72611;SDS011;60655;52.182;4.474;2023-03-21T05:13:02;20.98;;;8.27;;
72611;SDS011;60655;52.182;4.474;2023-03-21T05:15:04;21.55;;;8.10;;
72611;SDS011;60655;52.182;4.474;2023-03-21T05:17:05;15.80;;;7.97;;
72611;SDS011;60655;52.182;4.474;2023-03-21T05:19:06;20.65;;;9.18;;
72611;SDS011;60655;52.182;4.474;2023-03-21T05:21:07;20.52;;;8.25;;
72611;SDS011;60655;52.182;4.474;2023-03-21T05:23:10;22.88;;;8.82;;
72611;SDS011;60655;52.182;4.474;2023-03-21T05:25:11;21.38;;;8.63;;
72611;SDS011;60655;52.182;4.474;2023-03-21T05:27:12;24.20;;;9.07;;
72611;SDS011;60655;52.182;4.474;2023-03-21T05:29:13;17.52;;;7.50;;
72611;SDS011;60655;52.182;4.474;2023-03-21T05:31:15;20.17;;;9.02;;
72611;SDS011;60655;52.182;4.474;2023-03-21T05:33:17;21.27;;;9.55;;
72611;SDS011;60655;52.182;4.474;2023-03-21T05:35:18;24.63;;;9.57;;
72611;SDS011;60655;52.182;4.474;2023-03-21T05:37:19;19.30;;;10.20;;
72611;SDS011;60655;52.182;4.474;2023-03-21T05:39:20;18.63;;;8.13;;
72611;SDS011;60655;52.182;4.474;2023-03-21T05:41:21;20.13;;;8.07;;
72611;SDS011;60655;52.182;4.474;2023-03-21T05:43:22;22.17;;;8.95;;
72611;SDS011;60655;52.182;4.474;2023-03-21T05:45:23;20.92;;;7.85;;
72611;SDS011;60655;52.182;4.474;2023-03-21T05:47:25;23.95;;;10.95;;
72611;SDS011;60655;52.182;4.474;2023-03-21T05:49:26;21.13;;;9.88;;
72611;SDS011;60655;52.182;4.474;2023-03-21T05:51:27;23.10;;;9.63;;
72611;SDS011;60655;52.182;4.474;2023-03-21T05:53:28;20.48;;;8.50;;
72611;SDS011;60655;52.182;4.474;2023-03-21T05:55:29;20.70;;;10.18;;
72611;SDS011;60655;52.182;4.474;2023-03-21T05:57:30;22.33;;;10.13;;
72611;SDS011;60655;52.182;4.474;2023-03-21T05:59:34;22.38;;;9.88;;
72611;SDS011;60655;52.182;4.474;2023-03-21T06:01:35;23.70;;;10.02;;
72611;SDS011;60655;52.182;4.474;2023-03-21T06:03:36;18.50;;;8.13;;
72611;SDS011;60655;52.182;4.474;2023-03-21T06:05:37;22.75;;;8.45;;
72611;SDS011;60655;52.182;4.474;2023-03-21T06:07:38;18.17;;;8.32;;
72611;SDS011;60655;52.182;4.474;2023-03-21T06:09:39;20.85;;;9.07;;
72611;SDS011;60655;52.182;4.474;2023-03-21T06:11:42;19.75;;;9.02;;
72611;SDS011;60655;52.182;4.474;2023-03-21T06:13:45;22.90;;;9.10;;
72611;SDS011;60655;52.182;4.474;2023-03-21T06:15:46;21.58;;;7.88;;
72611;SDS011;60655;52.182;4.474;2023-03-21T06:17:47;23.52;;;8.80;;
72611;SDS011;60655;52.182;4.474;2023-03-21T06:19:48;19.05;;;8.98;;
72611;SDS011;60655;52.182;4.474;2023-03-21T06:21:49;23.27;;;9.40;;
72611;SDS011;60655;52.182;4.474;2023-03-21T06:23:50;22.63;;;9.18;;
72611;SDS011;60655;52.182;4.474;2023-03-21T06:25:52;24.02;;;9.35;;
72611;SDS011;60655;52.182;4.474;2023-03-21T06:27:53;17.48;;;8.30;;
72611;SDS011;60655;52.182;4.474;2023-03-21T06:29:54;16.83;;;7.97;;
72611;SDS011;60655;52.182;4.474;2023-03-21T06:31:55;19.08;;;8.27;;
72611;SDS011;60655;52.182;4.474;2023-03-21T06:33:56;20.75;;;8.07;;
72611;SDS011;60655;52.182;4.474;2023-03-21T06:35:57;20.75;;;8.50;;
72611;SDS011;60655;52.182;4.474;2023-03-21T06:37:58;20.88;;;8.93;;
72611;SDS011;60655;52.182;4.474;2023-03-21T06:39:59;19.95;;;8.60;;
72611;SDS011;60655;52.182;4.474;2023-03-21T06:42:00;23.08;;;9.15;;
72611;SDS011;60655;52.182;4.474;2023-03-21T06:44:02;21.73;;;8.27;;
72611;SDS011;60655;52.182;4.474;2023-03-21T06:46:03;23.30;;;9.35;;
72611;SDS011;60655;52.182;4.474;2023-03-21T06:48:05;21.92;;;8.13;;
72611;SDS011;60655;52.182;4.474;2023-03-21T06:50:06;21.05;;;8.05;;
72611;SDS011;60655;52.182;4.474;2023-03-21T06:52:08;17.45;;;7.78;;
72611;SDS011;60655;52.182;4.474;2023-03-21T06:54:09;19.20;;;7.35;;
72611;SDS011;60655;52.182;4.474;2023-03-21T06:56:11;24.00;;;8.82;;
72611;SDS011;60655;52.182;4.474;2023-03-21T06:58:13;19.70;;;7.30;;
72611;SDS011;60655;52.182;4.474;2023-03-21T07:00:14;15.68;;;7.53;;
72611;SDS011;60655;52.182;4.474;2023-03-21T07:02:16;17.40;;;6.47;;
72611;SDS011;60655;52.182;4.474;2023-03-21T07:04:17;21.13;;;7.70;;
72611;SDS011;60655;52.182;4.474;2023-03-21T07:06:18;18.05;;;6.63;;
72611;SDS011;60655;52.182;4.474;2023-03-21T07:08:19;19.98;;;7.57;;
72611;SDS011;60655;52.182;4.474;2023-03-21T07:10:20;18.52;;;6.90;;
72611;SDS011;60655;52.182;4.474;2023-03-21T07:12:21;26.55;;;9.50;;
72611;SDS011;60655;52.182;4.474;2023-03-21T07:14:22;19.00;;;7.65;;
72611;SDS011;60655;52.182;4.474;2023-03-21T07:16:23;23.58;;;8.02;;
72611;SDS011;60655;52.182;4.474;2023-03-21T07:18:25;19.90;;;7.68;;
72611;SDS011;60655;52.182;4.474;2023-03-21T07:20:26;16.80;;;6.85;;
72611;SDS011;60655;52.182;4.474;2023-03-21T07:22:27;19.50;;;7.30;;
72611;SDS011;60655;52.182;4.474;2023-03-21T07:24:28;16.17;;;6.45;;
72611;SDS011;60655;52.182;4.474;2023-03-21T07:26:29;17.33;;;6.10;;
72611;SDS011;60655;52.182;4.474;2023-03-21T07:28:30;15.90;;;6.68;;
72611;SDS011;60655;52.182;4.474;2023-03-21T07:30:31;15.55;;;7.00;;
72611;SDS011;60655;52.182;4.474;2023-03-21T07:32:32;15.07;;;6.00;;
72611;SDS011;60655;52.182;4.474;2023-03-21T07:34:34;13.65;;;5.78;;
72611;SDS011;60655;52.182;4.474;2023-03-21T07:36:35;14.90;;;6.00;;
72611;SDS011;60655;52.182;4.474;2023-03-21T07:38:36;13.95;;;5.93;;
72611;SDS011;60655;52.182;4.474;2023-03-21T07:40:37;15.55;;;5.45;;
72611;SDS011;60655;52.182;4.474;2023-03-21T07:42:38;18.42;;;5.95;;
72611;SDS011;60655;52.182;4.474;2023-03-21T07:44:40;15.45;;;6.20;;
72611;SDS011;60655;52.182;4.474;2023-03-21T07:46:42;11.75;;;5.15;;
72611;SDS011;60655;52.182;4.474;2023-03-21T07:48:43;19.25;;;6.82;;
72611;SDS011;60655;52.182;4.474;2023-03-21T07:50:44;15.32;;;5.85;;
72611;SDS011;60655;52.182;4.474;2023-03-21T07:52:45;15.90;;;6.22;;
72611;SDS011;60655;52.182;4.474;2023-03-21T07:54:46;15.20;;;6.32;;
72611;SDS011;60655;52.182;4.474;2023-03-21T07:56:47;14.48;;;6.20;;
72611;SDS011;60655;52.182;4.474;2023-03-21T07:58:48;16.48;;;6.28;;
72611;SDS011;60655;52.182;4.474;2023-03-21T08:00:50;14.52;;;5.68;;
72611;SDS011;60655;52.182;4.474;2023-03-21T08:02:52;19.38;;;6.70;;
72611;SDS011;60655;52.182;4.474;2023-03-21T08:04:54;15.80;;;6.47;;
72611;SDS011;60655;52.182;4.474;2023-03-21T08:06:55;14.55;;;6.18;;
72611;SDS011;60655;52.182;4.474;2023-03-21T08:08:57;12.30;;;6.30;;
72611;SDS011;60655;52.182;4.474;2023-03-21T08:10:58;16.40;;;5.97;;
72611;SDS011;60655;52.182;4.474;2023-03-21T08:12:59;16.42;;;6.75;;
72611;SDS011;60655;52.182;4.474;2023-03-21T08:15:00;22.50;;;6.47;;
72611;SDS011;60655;52.182;4.474;2023-03-21T08:17:02;20.08;;;7.82;;
72611;SDS011;60655;52.182;4.474;2023-03-21T08:19:04;15.25;;;6.97;;
72611;SDS011;60655;52.182;4.474;2023-03-21T08:21:05;17.02;;;7.38;;
72611;SDS011;60655;52.182;4.474;2023-03-21T08:23:06;17.63;;;5.93;;
72611;SDS011;60655;52.182;4.474;2023-03-21T08:25:08;20.98;;;8.10;;
72611;SDS011;60655;52.182;4.474;2023-03-21T08:27:12;17.27;;;7.38;;
72611;SDS011;60655;52.182;4.474;2023-03-21T08:29:13;16.27;;;6.78;;
72611;SDS011;60655;52.182;4.474;2023-03-21T08:31:14;19.45;;;6.75;;
72611;SDS011;60655;52.182;4.474;2023-03-21T08:33:17;18.25;;;7.07;;
72611;SDS011;60655;52.182;4.474;2023-03-21T08:35:19;16.50;;;6.13;;
72611;SDS011;60655;52.182;4.474;2023-03-21T08:37:20;15.05;;;6.38;;
72611;SDS011;60655;52.182;4.474;2023-03-21T08:39:21;17.38;;;6.50;;
72611;SDS011;60655;52.182;4.474;2023-03-21T08:41:23;14.18;;;5.88;;
72611;SDS011;60655;52.182;4.474;2023-03-21T08:43:25;19.08;;;6.80;;
72611;SDS011;60655;52.182;4.474;2023-03-21T08:45:27;18.77;;;5.95;;
72611;SDS011;60655;52.182;4.474;2023-03-21T08:47:28;14.13;;;6.03;;
72611;SDS011;60655;52.182;4.474;2023-03-21T08:49:30;15.93;;;6.22;;
72611;SDS011;60655;52.182;4.474;2023-03-21T08:51:31;19.75;;;5.70;;
72611;SDS011;60655;52.182;4.474;2023-03-21T08:53:33;12.40;;;5.32;;
72611;SDS011;60655;52.182;4.474;2023-03-21T08:55:34;11.77;;;4.55;;
72611;SDS011;60655;52.182;4.474;2023-03-21T08:57:35;12.70;;;5.53;;
72611;SDS011;60655;52.182;4.474;2023-03-21T08:59:36;14.20;;;5.70;;
72611;SDS011;60655;52.182;4.474;2023-03-21T09:01:38;13.07;;;4.72;;
72611;SDS011;60655;52.182;4.474;2023-03-21T09:03:38;16.25;;;5.95;;
72611;SDS011;60655;52.182;4.474;2023-03-21T09:05:39;11.50;;;4.85;;
72611;SDS011;60655;52.182;4.474;2023-03-21T09:07:40;16.20;;;5.40;;
72611;SDS011;60655;52.182;4.474;2023-03-21T09:09:42;18.52;;;5.10;;
72611;SDS011;60655;52.182;4.474;2023-03-21T09:11:43;13.00;;;4.90;;
72611;SDS011;60655;52.182;4.474;2023-03-21T09:13:44;13.57;;;5.55;;
72611;SDS011;60655;52.182;4.474;2023-03-21T09:15:45;12.07;;;4.97;;
72611;SDS011;60655;52.182;4.474;2023-03-21T09:17:47;14.15;;;6.13;;
72611;SDS011;60655;52.182;4.474;2023-03-21T09:19:52;12.80;;;4.85;;
72611;SDS011;60655;52.182;4.474;2023-03-21T09:21:53;15.48;;;6.25;;
72611;SDS011;60655;52.182;4.474;2023-03-21T09:23:56;14.60;;;5.78;;
72611;SDS011;60655;52.182;4.474;2023-03-21T09:25:58;14.30;;;5.53;;
72611;SDS011;60655;52.182;4.474;2023-03-21T09:28:00;12.70;;;5.50;;
72611;SDS011;60655;52.182;4.474;2023-03-21T09:30:01;12.90;;;5.70;;
72611;SDS011;60655;52.182;4.474;2023-03-21T09:32:05;12.02;;;5.57;;
72611;SDS011;60655;52.182;4.474;2023-03-21T09:34:07;13.20;;;4.90;;
72611;SDS011;60655;52.182;4.474;2023-03-21T09:36:09;14.85;;;5.80;;
72611;SDS011;60655;52.182;4.474;2023-03-21T09:38:13;18.55;;;5.57;;
72611;SDS011;60655;52.182;4.474;2023-03-21T09:40:16;12.00;;;4.32;;
72611;SDS011;60655;52.182;4.474;2023-03-21T09:49:05;11.45;;;4.57;;
72611;SDS011;60655;52.182;4.474;2023-03-21T09:51:12;13.32;;;5.43;;
72611;SDS011;60655;52.182;4.474;2023-03-21T09:53:19;14.77;;;6.47;;
72611;SDS011;60655;52.182;4.474;2023-03-21T09:55:26;15.63;;;5.93;;
72611;SDS011;60655;52.182;4.474;2023-03-21T09:57:39;16.55;;;6.25;;
72611;SDS011;60655;52.182;4.474;2023-03-21T09:59:43;20.77;;;7.70;;
72611;SDS011;60655;52.182;4.474;2023-03-21T10:01:44;19.90;;;6.75;;
72611;SDS011;60655;52.182;4.474;2023-03-21T10:03:49;16.45;;;6.60;;
72611;SDS011;60655;52.182;4.474;2023-03-21T10:05:50;18.23;;;5.90;;
72611;SDS011;60655;52.182;4.474;2023-03-21T10:10:14;16.65;;;6.75;;
72611;SDS011;60655;52.182;4.474;2023-03-21T10:12:20;17.60;;;7.75;;
72611;SDS011;60655;52.182;4.474;2023-03-21T10:14:41;18.33;;;6.25;;
72611;SDS011;60655;52.182;4.474;2023-03-21T10:16:47;15.50;;;5.75;;
72611;SDS011;60655;52.182;4.474;2023-03-21T10:18:50;16.02;;;6.63;;
72611;SDS011;60655;52.182;4.474;2023-03-21T10:20:52;17.20;;;6.18;;
72611;SDS011;60655;52.182;4.474;2023-03-21T10:22:54;18.20;;;6.93;;
72611;SDS011;60655;52.182;4.474;2023-03-21T10:24:57;17.10;;;6.72;;
72611;SDS011;60655;52.182;4.474;2023-03-21T10:26:58;15.20;;;6.45;;
72611;SDS011;60655;52.182;4.474;2023-03-21T10:29:02;19.83;;;6.72;;
72611;SDS011;60655;52.182;4.474;2023-03-21T10:31:07;17.33;;;6.85;;
72611;SDS011;60655;52.182;4.474;2023-03-21T10:33:11;19.45;;;6.50;;
72611;SDS011;60655;52.182;4.474;2023-03-21T10:35:14;17.77;;;6.68;;
72611;SDS011;60655;52.182;4.474;2023-03-21T10:37:16;18.95;;;7.45;;
72611;SDS011;60655;52.182;4.474;2023-03-21T10:41:23;18.90;;;6.72;;
72611;SDS011;60655;52.182;4.474;2023-03-21T10:45:27;20.60;;;7.97;;
72611;SDS011;60655;52.182;4.474;2023-03-21T10:47:33;15.50;;;7.00;;
72611;SDS011;60655;52.182;4.474;2023-03-21T10:49:36;17.13;;;7.32;;
72611;SDS011;60655;52.182;4.474;2023-03-21T10:51:38;16.80;;;7.85;;
72611;SDS011;60655;52.182;4.474;2023-03-21T10:53:40;23.92;;;8.10;;
72611;SDS011;60655;52.182;4.474;2023-03-21T10:55:53;21.98;;;8.13;;
72611;SDS011;60655;52.182;4.474;2023-03-21T10:57:58;14.40;;;6.90;;
72611;SDS011;60655;52.182;4.474;2023-03-21T11:00:07;14.15;;;6.72;;
72611;SDS011;60655;52.182;4.474;2023-03-21T11:04:26;20.75;;;8.00;;
72611;SDS011;60655;52.182;4.474;2023-03-21T11:06:31;13.60;;;7.38;;
72611;SDS011;60655;52.182;4.474;2023-03-21T11:08:38;19.98;;;7.05;;
72611;SDS011;60655;52.182;4.474;2023-03-21T11:13:01;15.95;;;7.18;;
72611;SDS011;60655;52.182;4.474;2023-03-21T11:17:46;13.52;;;6.30;;
72611;SDS011;60655;52.182;4.474;2023-03-21T11:19:48;17.58;;;7.15;;
72611;SDS011;60655;52.182;4.474;2023-03-21T11:22:04;22.15;;;8.15;;
72611;SDS011;60655;52.182;4.474;2023-03-21T11:24:09;14.77;;;7.05;;
72611;SDS011;60655;52.182;4.474;2023-03-21T11:26:18;18.33;;;8.88;;
72611;SDS011;60655;52.182;4.474;2023-03-21T11:28:26;11.77;;;5.82;;
72611;SDS011;60655;52.182;4.474;2023-03-21T11:30:35;14.18;;;7.60;;
72611;SDS011;60655;52.182;4.474;2023-03-21T11:32:36;20.13;;;6.63;;
72611;SDS011;60655;52.182;4.474;2023-03-21T11:34:40;15.00;;;6.18;;
72611;SDS011;60655;52.182;4.474;2023-03-21T11:36:43;13.98;;;5.85;;
72611;SDS011;60655;52.182;4.474;2023-03-21T11:38:57;13.02;;;5.20;;
72611;SDS011;60655;52.182;4.474;2023-03-21T11:41:23;15.10;;;4.30;;
72611;SDS011;60655;52.182;4.474;2023-03-21T11:43:36;15.27;;;3.97;;
72611;SDS011;60655;52.182;4.474;2023-03-21T11:45:38;11.23;;;4.22;;
72611;SDS011;60655;52.182;4.474;2023-03-21T11:47:57;8.32;;;3.65;;
72611;SDS011;60655;52.182;4.474;2023-03-21T11:49:59;10.68;;;4.20;;
72611;SDS011;60655;52.182;4.474;2023-03-21T11:52:13;10.30;;;3.88;;
72611;SDS011;60655;52.182;4.474;2023-03-21T11:54:27;10.25;;;3.03;;
72611;SDS011;60655;52.182;4.474;2023-03-21T11:56:39;9.65;;;3.08;;
72611;SDS011;60655;52.182;4.474;2023-03-21T12:04:02;7.93;;;3.15;;
72611;SDS011;60655;52.182;4.474;2023-03-21T12:06:04;8.23;;;2.50;;
72611;SDS011;60655;52.182;4.474;2023-03-21T12:08:31;13.40;;;4.00;;
72611;SDS011;60655;52.182;4.474;2023-03-21T12:15:49;10.50;;;4.43;;
72611;SDS011;60655;52.182;4.474;2023-03-21T12:24:52;9.57;;;4.63;;
72611;SDS011;60655;52.182;4.474;2023-03-21T12:27:13;13.45;;;4.18;;
72611;SDS011;60655;52.182;4.474;2023-03-21T12:38:38;10.65;;;4.50;;
72611;SDS011;60655;52.182;4.474;2023-03-21T12:45:35;13.48;;;5.97;;
72611;SDS011;60655;52.182;4.474;2023-03-21T12:47:53;16.98;;;7.05;;
72611;SDS011;60655;52.182;4.474;2023-03-21T12:52:15;14.35;;;6.90;;
72611;SDS011;60655;52.182;4.474;2023-03-21T12:54:40;14.43;;;6.32;;
72611;SDS011;60655;52.182;4.474;2023-03-21T12:59:34;11.68;;;5.70;;
72611;SDS011;60655;52.182;4.474;2023-03-21T13:01:47;12.35;;;5.72;;
72611;SDS011;60655;52.182;4.474;2023-03-21T13:06:31;15.82;;;6.32;;
72611;SDS011;60655;52.182;4.474;2023-03-21T13:10:46;10.70;;;5.35;;
72611;SDS011;60655;52.182;4.474;2023-03-21T13:14:59;10.25;;;4.55;;
72611;SDS011;60655;52.182;4.474;2023-03-21T13:17:14;13.75;;;4.68;;
72611;SDS011;60655;52.182;4.474;2023-03-21T13:19:41;16.35;;;5.20;;
72611;SDS011;60655;52.182;4.474;2023-03-21T13:22:09;10.63;;;4.72;;
72611;SDS011;60655;52.182;4.474;2023-03-21T13:24:23;11.88;;;4.75;;
72611;SDS011;60655;52.182;4.474;2023-03-21T13:26:37;12.55;;;5.07;;
72611;SDS011;60655;52.182;4.474;2023-03-21T13:28:40;11.82;;;5.32;;
72611;SDS011;60655;52.182;4.474;2023-03-21T13:30:41;13.35;;;4.63;;
72611;SDS011;60655;52.182;4.474;2023-03-21T13:32:43;12.80;;;4.78;;
72611;SDS011;60655;52.182;4.474;2023-03-21T13:34:58;9.27;;;4.65;;
72611;SDS011;60655;52.182;4.474;2023-03-21T13:37:04;9.13;;;4.50;;
72611;SDS011;60655;52.182;4.474;2023-03-21T13:39:05;15.40;;;5.90;;
72611;SDS011;60655;52.182;4.474;2023-03-21T13:41:13;13.65;;;5.15;;
72611;SDS011;60655;52.182;4.474;2023-03-21T13:43:38;14.60;;;5.95;;
72611;SDS011;60655;52.182;4.474;2023-03-21T13:45:52;13.80;;;5.90;;
72611;SDS011;60655;52.182;4.474;2023-03-21T13:47:55;20.52;;;6.57;;
72611;SDS011;60655;52.182;4.474;2023-03-21T13:50:12;11.98;;;6.15;;
72611;SDS011;60655;52.182;4.474;2023-03-21T13:52:25;12.60;;;6.22;;
72611;SDS011;60655;52.182;4.474;2023-03-21T13:54:47;14.52;;;6.35;;